Time;durP1;ratioP1;P1;durP2;ratioP2;P2;SDS_P1;SDS_P2;PMS_P1;PMS_P2;Temp;Humidity;BMP_temperature;BMP_pressure;BME280_temperature;BME280_humidity;BME280_pressure;Samples;Min_cycle;Max_cycle;Signal;HPM_P1;HPM_P2
2023/05/02 00:07:25;;;;;;;;;;;;;;;10.51;100.00;97910.69;18535777;32;19993;-56
2023/05/02 00:17:28;;;;;;;;;;;;;;;10.34;100.00;97915.41;18562283;32;19964;-56
2023/05/02 00:27:31;;;;;;;;;;;;;;;10.22;100.00;97917.50;18561514;32;19956;-56
2023/05/02 00:37:34;;;;;;;;;;;;;;;10.10;100.00;97913.13;18561087;32;19964;-56
2023/05/02 00:47:37;;;;;;;;;;;;;;;9.97;100.00;97916.28;18560791;32;19952;-56
2023/05/02 00:57:41;;;;;;;;;;;;;;;9.89;100.00;97919.47;18560612;32;20378;-55
2023/05/02 01:07:44;;;;;;;;;;;;;;;9.96;100.00;97920.87;18560334;32;19961;-56
2023/05/02 01:17:48;;;;;;;;;;;;;;;9.78;100.00;97916.69;18559857;32;19941;-56
2023/05/02 01:27:54;;;;;;;;;;;;;;;9.48;100.00;97931.56;18560058;32;20007;-56
2023/05/02 01:37:58;;;;;;;;;;;;;;;9.22;100.00;97927.00;18559730;32;19944;-54
2023/05/02 01:48:01;;;;;;;;;;;;;;;8.95;100.00;97939.41;18559312;32;19997;-54
2023/05/02 01:58:05;;;;;;;;;;;;;;;8.78;100.00;97942.19;18560494;32;20428;-55
2023/05/02 02:08:08;;;;;;;;;;;;;;;8.62;100.00;97930.41;18570426;32;20363;-53
2023/05/02 02:18:17;;;;;;;;;;;;;;;8.56;100.00;97952.13;18569324;32;19975;-55
2023/05/02 02:28:20;;;;;;;;;;;;;;;8.38;100.00;97951.34;18569053;32;19994;-56
2023/05/02 02:38:31;;;;;;;;;;;;;;;8.13;100.00;97955.28;18568170;32;19978;-56
2023/05/02 02:48:42;;;;;;;;;;;;;;;8.05;100.00;97966.50;18567667;32;19965;-55
2023/05/02 02:58:44;;;;;;;;;;;;;;;7.89;100.00;97962.72;18552903;32;19956;-56
2023/05/02 03:08:47;;;;;;;;;;;;;;;7.81;100.00;97971.22;18552017;31;19952;-57
2023/05/02 03:18:50;;;;;;;;;;;;;;;7.73;100.00;97979.69;18565639;32;19964;-55
2023/05/02 03:28:53;;;;;;;;;;;;;;;7.54;100.00;97989.91;18551113;32;19975;-54
2023/05/02 03:38:55;;;;;;;;;;;;;;;7.43;100.00;97994.28;18564332;32;19988;-55
2023/05/02 03:48:57;;;;;;;;;;;;;;;7.34;100.00;97985.75;18550083;32;20016;-55
2023/05/02 03:59:00;;;;;;;;;;;;;;;7.07;100.00;97998.97;18563355;32;20344;-56
2023/05/02 04:09:03;;;;;;;;;;;;;;;7.06;100.00;98010.81;18562892;32;19952;-56
2023/05/02 04:19:06;;;;;;;;;;;;;;;6.90;100.00;98017.72;18548111;32;19952;-54
2023/05/02 04:29:08;;;;;;;;;;;;;;;6.86;100.00;98030.81;18561637;32;20360;-55
2023/05/02 04:39:11;;;;;;;;;;;;;;;6.85;100.00;98052.56;18561324;32;19999;-56
2023/05/02 04:49:13;;;;;;;;;;;;;;;7.09;100.00;98077.53;18561182;32;19961;-56
2023/05/02 04:59:16;;;;;;;;;;;;;;;7.38;100.00;98097.22;18560577;31;19971;-57
2023/05/02 05:09:18;;;;;;;;;;;;;;;7.64;100.00;98108.47;18533038;32;19953;-55
2023/05/02 05:19:21;;;;;;;;;;;;;;;7.84;100.00;98126.06;18560163;32;19967;-56
2023/05/02 05:29:23;;;;;;;;;;;;;;;8.01;100.00;98126.94;18560037;32;20024;-56
2023/05/02 05:39:25;;;;;;;;;;;;;;;8.24;100.00;98125.19;18555742;32;19964;-56
2023/05/02 05:49:28;;;;;;;;;;;;;;;8.49;100.00;98140.97;18571595;32;19948;-56
2023/05/02 05:59:33;;;;;;;;;;;;;;;8.80;100.00;98142.28;18556622;32;20366;-55
2023/05/02 06:09:36;;;;;;;;;;;;;;;9.20;100.00;98156.59;18570612;32;19957;-56
2023/05/02 06:19:38;;;;;;;;;;;;;;;9.66;100.00;98154.47;18570104;32;19948;-56
2023/05/02 06:29:41;;;;;;;;;;;;;;;10.16;100.00;98176.09;18568898;32;19952;-57
2023/05/02 06:39:43;;;;;;;;;;;;;;;10.55;100.00;98199.47;18568172;32;19994;-56
2023/05/02 06:49:46;;;;;;;;;;;;;;;10.63;100.00;98202.53;18552747;31;19953;-57
2023/05/02 06:59:48;;;;;;;;;;;;;;;11.27;100.00;98211.66;18566996;32;20337;-57
2023/05/02 07:09:51;;;;;;;;;;;;;;;11.81;100.00;98218.72;18552289;32;20363;-57
2023/05/02 07:19:53;;;;;;;;;;;;;;;12.11;100.00;98211.78;18551269;32;19986;-57
2023/05/02 07:29:55;;;;;;;;;;;;;;;12.45;100.00;98214.03;18551349;32;19964;-58
2023/05/02 07:39:58;;;;;;;;;;;;;;;12.91;100.00;98215.16;18549952;32;19986;-58
2023/05/02 07:50:03;;;;;;;;;;;;;;;13.29;100.00;98215.66;18563959;32;19968;-58
2023/05/02 08:00:08;;;;;;;;;;;;;;;12.92;100.00;98204.03;18562523;32;19956;-58
2023/05/02 08:10:11;;;;;;;;;;;;;;;13.39;100.00;98202.13;18548608;32;20092;-58
2023/05/02 08:20:13;;;;;;;;;;;;;;;14.20;100.00;98210.22;18562312;32;19996;-58
2023/05/02 08:30:16;;;;;;;;;;;;;;;14.34;100.00;98211.22;18562043;32;20004;-56
2023/05/02 08:40:19;;;;;;;;;;;;;;;14.82;100.00;98215.28;18561140;32;20343;-58
2023/05/02 08:50:44;;;;;;;;;;;;;;;15.62;100.00;98224.87;18546686;32;20417;-58
2023/05/02 09:00:47;;;;;;;;;;;;;;;15.36;100.00;98233.34;18560556;32;19944;-58
2023/05/02 09:10:50;;;;;;;;;;;;;;;15.31;100.00;98246.19;18567072;32;20352;-58
2023/05/02 09:20:53;;;;;;;;;;;;;;;16.22;100.00;98251.72;18573156;32;20332;-58
2023/05/02 09:31:05;;;;;;;;;;;;;;;16.43;92.78;98246.00;18558546;31;20254;-58
2023/05/02 09:41:08;;;;;;;;;;;;;;;16.71;85.29;98254.38;18507219;32;19965;-59
2023/05/02 09:51:16;;;;;;;;;;;;;;;16.31;95.12;98256.53;18506468;32;19996;-58
2023/05/02 10:01:19;;;;;;;;;;;;;;;16.06;98.14;98251.12;18491692;32;20373;-58
2023/05/02 10:11:23;;;;;;;;;;;;;;;16.18;90.13;98253.44;18505157;32;20273;-58
2023/05/02 10:21:26;;;;;;;;;;;;;;;16.55;98.03;98243.66;18503774;32;20460;-58
2023/05/02 10:31:33;;;;;;;;;;;;;;;16.73;88.41;98252.97;18492131;31;19965;-58
2023/05/02 10:41:38;;;;;;;;;;;;;;;17.60;90.21;98256.19;18568334;32;20337;-58
2023/05/02 10:51:42;;;;;;;;;;;;;;;17.15;86.96;98242.22;18567691;32;19948;-58
2023/05/02 11:01:45;;;;;;;;;;;;;;;17.78;87.72;98229.06;18567165;32;20294;-59
2023/05/02 11:11:49;;;;;;;;;;;;;;;18.95;77.18;98235.03;18566695;32;19953;-59
2023/05/02 11:21:56;;;;;;;;;;;;;;;18.75;76.77;98244.53;18565863;32;19956;-57
2023/05/02 11:31:59;;;;;;;;;;;;;;;18.77;68.42;98236.81;18565545;31;19979;-56
2023/05/02 11:42:01;;;;;;;;;;;;;;;19.30;59.11;98232.53;18564484;32;19996;-57
2023/05/02 11:52:04;;;;;;;;;;;;;;;19.87;60.66;98234.63;18563676;32;19971;-57
2023/05/02 12:02:07;;;;;;;;;;;;;;;20.35;52.86;98215.66;18536030;32;19997;-57
2023/05/02 12:12:09;;;;;;;;;;;;;;;19.55;55.18;98214.59;18562981;32;19963;-56
2023/05/02 12:22:13;;;;;;;;;;;;;;;19.94;59.83;98206.72;18562214;32;19987;-56
2023/05/02 12:32:26;;;;;;;;;;;;;;;20.49;52.58;98210.84;18547937;32;19971;-57
2023/05/02 12:42:33;;;;;;;;;;;;;;;21.36;51.84;98211.91;18547029;32;19960;-56
2023/05/02 12:52:49;;;;;;;;;;;;;;;21.75;50.11;98212.72;18561412;32;19953;-56
2023/05/02 13:02:52;;;;;;;;;;;;;;;21.14;44.61;98209.03;18560763;32;20290;-55
2023/05/02 13:12:55;;;;;;;;;;;;;;;21.55;47.21;98208.78;18560495;32;20234;-56
2023/05/02 13:22:58;;;;;;;;;;;;;;;21.69;41.58;98205.81;18545408;32;19960;-56
2023/05/02 13:33:00;;;;;;;;;;;;;;;22.04;40.59;98203.69;18560108;31;20220;-56
2023/05/02 13:43:03;;;;;;;;;;;;;;;21.85;41.46;98193.09;18559469;32;20286;-55
2023/05/02 13:53:06;;;;;;;;;;;;;;;22.09;40.89;98199.94;18560697;32;19957;-56
2023/05/02 14:03:09;;;;;;;;;;;;;;;22.17;41.39;98191.62;18570468;31;20311;-56
2023/05/02 14:13:13;;;;;;;;;;;;;;;22.96;39.71;98191.00;18570299;32;20377;-56
2023/05/02 14:23:15;;;;;;;;;;;;;;;23.32;37.75;98186.78;18569547;32;20316;-56
2023/05/02 14:33:17;;;;;;;;;;;;;;;23.70;39.75;98182.09;18568756;31;19961;-56
2023/05/02 14:43:20;;;;;;;;;;;;;;;23.69;36.64;98188.78;18554008;32;20369;-56
2023/05/02 14:53:23;;;;;;;;;;;;;;;24.13;36.73;98190.97;18567826;32;19953;-56
2023/05/02 15:03:26;;;;;;;;;;;;;;;23.81;33.43;98196.25;18552500;32;20284;-56
2023/05/02 15:13:29;;;;;;;;;;;;;;;22.83;37.25;98183.81;18566224;32;20019;-56
2023/05/02 15:23:31;;;;;;;;;;;;;;;22.41;34.93;98187.44;18565664;32;19968;-55
2023/05/02 15:33:34;;;;;;;;;;;;;;;21.71;36.84;98198.03;18564901;31;19953;-54
2023/05/02 15:43:37;;;;;;;;;;;;;;;21.49;37.35;98188.88;18564907;32;19990;-55
2023/05/02 15:53:42;;;;;;;;;;;;;;;21.52;39.71;98190.97;18564137;31;19953;-54
2023/05/02 16:03:46;;;;;;;;;;;;;;;20.92;41.92;98190.78;18563947;32;20039;-55
2023/05/02 16:13:54;;;;;;;;;;;;;;;20.54;41.79;98199.69;18562931;32;19960;-56
2023/05/02 16:23:57;;;;;;;;;;;;;;;20.23;42.54;98192.38;18535214;32;20349;-56
2023/05/02 16:34:00;;;;;;;;;;;;;;;20.80;42.97;98209.87;18547610;32;19953;-56
2023/05/02 16:44:03;;;;;;;;;;;;;;;20.82;44.97;98213.12;18534683;32;19952;-56
2023/05/02 16:54:06;;;;;;;;;;;;;;;21.10;45.78;98221.84;18561026;32;19968;-56
2023/05/02 17:04:09;;;;;;;;;;;;;;;19.80;46.80;98232.31;18560703;32;20285;-55
2023/05/02 17:14:12;;;;;;;;;;;;;;;19.21;46.78;98229.75;18546421;32;19994;-55
2023/05/02 17:24:15;;;;;;;;;;;;;;;18.95;53.54;98238.59;18545615;32;19975;-55
2023/05/02 17:34:18;;;;;;;;;;;;;;;18.61;52.60;98245.41;18568688;31;20246;-54
2023/05/02 17:44:21;;;;;;;;;;;;;;;18.39;54.78;98259.03;18571846;31;19949;-54
2023/05/02 17:54:24;;;;;;;;;;;;;;;17.75;51.67;98259.75;18571225;32;19956;-55
2023/05/02 18:04:27;;;;;;;;;;;;;;;17.06;51.58;98279.50;18571241;32;19967;-54
2023/05/02 18:14:29;;;;;;;;;;;;;;;16.80;50.81;98287.25;18570236;32;19972;-55
2023/05/02 18:24:32;;;;;;;;;;;;;;;16.44;58.47;98285.84;18555098;32;19969;-54
2023/05/02 18:34:35;;;;;;;;;;;;;;;16.31;68.56;98294.75;18568453;31;20341;-55
2023/05/02 18:44:39;;;;;;;;;;;;;;;16.01;83.04;98294.84;18567974;32;19980;-54
2023/05/02 18:54:42;;;;;;;;;;;;;;;15.49;96.82;98299.97;18567427;32;19952;-54
2023/05/02 19:04:44;;;;;;;;;;;;;;;14.92;81.91;98305.06;18566841;32;19968;-53
2023/05/02 19:14:49;;;;;;;;;;;;;;;14.37;83.49;98307.78;18552972;32;20005;-53
2023/05/02 19:24:51;;;;;;;;;;;;;;;13.85;90.69;98318.84;18565806;32;20354;-53
2023/05/02 19:34:55;;;;;;;;;;;;;;;13.75;95.23;98323.50;18564727;32;20008;-54
2023/05/02 19:44:58;;;;;;;;;;;;;;;13.48;100.00;98330.84;18564469;32;19957;-55
2023/05/02 19:55:00;;;;;;;;;;;;;;;13.38;100.00;98352.59;18563999;32;19961;-53
2023/05/02 20:05:04;;;;;;;;;;;;;;;13.35;100.00;98342.25;18563492;32;19952;-55
2023/05/02 20:15:06;;;;;;;;;;;;;;;13.25;100.00;98347.66;18563307;32;20294;-56
2023/05/02 20:25:10;;;;;;;;;;;;;;;13.15;100.00;98354.72;18548038;31;19975;-55
2023/05/02 20:35:13;;;;;;;;;;;;;;;12.86;100.00;98363.34;18547604;31;19956;-55
2023/05/02 20:45:17;;;;;;;;;;;;;;;12.45;100.00;98368.63;18547559;32;19957;-54
2023/05/02 20:55:21;;;;;;;;;;;;;;;12.16;100.00;98381.81;18546841;32;19981;-55
2023/05/02 21:05:25;;;;;;;;;;;;;;;11.81;100.00;98373.16;18565504;32;19960;-54
2023/05/02 21:15:27;;;;;;;;;;;;;;;11.55;100.00;98368.63;18559770;31;20325;-53
2023/05/02 21:25:30;;;;;;;;;;;;;;;11.37;100.00;98370.63;18558972;32;19971;-54
2023/05/02 21:35:32;;;;;;;;;;;;;;;11.36;100.00;98374.44;18572236;31;19979;-53
2023/05/02 21:45:41;;;;;;;;;;;;;;;11.19;100.00;98364.53;18558483;32;20000;-54
2023/05/02 21:55:44;;;;;;;;;;;;;;;10.99;100.00;98378.69;18572014;32;19998;-54
2023/05/02 22:05:47;;;;;;;;;;;;;;;10.97;100.00;98377.31;18570932;32;20276;-55
2023/05/02 22:15:49;;;;;;;;;;;;;;;10.96;100.00;98386.50;18555142;32;20340;-52
2023/05/02 22:25:52;;;;;;;;;;;;;;;10.75;100.00;98385.47;18569686;32;20006;-53
2023/05/02 22:35:55;;;;;;;;;;;;;;;10.60;100.00;98383.41;18554647;31;20230;-54
2023/05/02 22:45:57;;;;;;;;;;;;;;;10.44;100.00;98391.34;18553990;32;19964;-54
2023/05/02 22:56:00;;;;;;;;;;;;;;;10.37;100.00;98379.88;18568277;32;20000;-54
2023/05/02 23:06:02;;;;;;;;;;;;;;;10.34;100.00;98377.66;18567128;31;19989;-53
2023/05/02 23:16:04;;;;;;;;;;;;;;;10.36;100.00;98383.66;18566637;32;19996;-52
2023/05/02 23:26:10;;;;;;;;;;;;;;;10.33;100.00;98374.12;18566088;32;19957;-53
2023/05/02 23:36:12;;;;;;;;;;;;;;;10.20;100.00;98373.69;18565170;32;20407;-54
2023/05/02 23:46:14;;;;;;;;;;;;;;;10.06;100.00;98376.75;18564649;32;19948;-56
2023/05/02 23:56:16;;;;;;;;;;;;;;;9.86;100.00;98369.16;18563909;32;19956;-56
